Terminal Aerodrome Forecast
Issued by NWS Twin Cities, MN

Current Version | Previous Version | Text Only | Print | Product List | Glossary On
Versions: 1 2 3 4 5 6 7 8 9 10 11 12 13 14 15 16 17 18 19 20 21 22
756
FTUS43 KMPX 230520
TAFEAU
TAF
KEAU 230520Z 2306/2406 21004KT P6SM SKC
     FM231600 01004KT P6SM SCT200
     FM232100 21005KT P6SM BKN200
     FM240000 10006KT P6SM SCT200=

USA.gov is the U.S. government's official web portal to all federal, state and local government web resources and services.